Time;durP1;ratioP1;P1;durP2;ratioP2;P2;SDS_P1;SDS_P2;PMS_P1;PMS_P2;Temp;Humidity;BMP_temperature;BMP_pressure;BME280_temperature;BME280_humidity;BME280_pressure;Samples;Min_cycle;Max_cycle;Signal;HPM_P1;HPM_P2
2024/03/14 00:00:16;;;;;;;81.30;47.20;;;;;;;6.56;88.00;101412.84;105610;1258;66124;-69
2024/03/14 00:03:04;;;;;;;82.40;46.20;;;;;;;6.52;87.92;101415.45;105525;1256;139821;-68
2024/03/14 00:05:31;;;;;;;78.60;46.40;;;;;;;6.55;88.09;101411.73;108940;1254;59374;-68
2024/03/14 00:08:00;;;;;;;81.30;48.00;;;;;;;6.54;88.01;101410.83;109252;1254;60784;-69
2024/03/14 00:10:27;;;;;;;82.40;46.80;;;;;;;6.50;87.93;101408.20;108870;1254;138604;-69
2024/03/14 00:12:53;;;;;;;81.50;49.50;;;;;;;6.50;88.05;101406.96;109205;1254;65674;-70
2024/03/14 00:15:20;;;;;;;80.20;47.30;;;;;;;6.50;87.99;101410.26;108992;1255;138784;-70
2024/03/14 00:17:47;;;;;;;86.40;46.60;;;;;;;6.49;88.02;101402.73;109201;1254;59185;-70
2024/03/14 00:20:14;;;;;;;87.70;47.10;;;;;;;6.52;88.22;101407.42;109014;1254;141901;-70
2024/03/14 00:22:41;;;;;;;92.90;50.20;;;;;;;6.54;88.18;101402.64;109215;1254;74622;-71
2024/03/14 00:25:09;;;;;;;74.70;44.60;;;;;;;6.56;88.17;101400.11;109029;1255;65428;-69
2024/03/14 00:27:39;;;;;;;90.60;48.10;;;;;;;6.57;88.16;101401.73;108973;1253;139829;-68
2024/03/14 00:30:11;;;;;;;78.50;45.50;;;;;;;6.58;88.05;101398.47;109007;1255;60598;-68
2024/03/14 00:32:37;;;;;;;74.20;44.70;;;;;;;6.56;88.02;101395.25;109062;1253;139006;-68
2024/03/14 00:35:04;;;;;;;69.60;43.10;;;;;;;6.57;88.10;101394.05;109224;1258;72773;-67
2024/03/14 00:37:31;;;;;;;75.30;43.00;;;;;;;6.59;88.16;101397.32;106055;1256;66516;-70
2024/03/14 00:39:58;;;;;;;75.10;45.80;;;;;;;6.58;87.92;101395.52;105750;1254;138763;-71
2024/03/14 00:42:24;;;;;;;73.00;45.70;;;;;;;6.52;88.03;101385.42;104860;1258;61298;-71
2024/03/14 00:44:51;;;;;;;74.20;45.70;;;;;;;6.55;88.13;101393.47;105001;1257;139260;-71
2024/03/14 00:47:18;;;;;;;73.90;43.60;;;;;;;6.56;88.13;101388.77;104853;1254;75337;-70
2024/03/14 00:49:45;;;;;;;74.20;43.90;;;;;;;6.55;88.17;101382.46;109284;1254;65964;-71
2024/03/14 00:52:12;;;;;;;73.70;44.10;;;;;;;6.54;88.22;101380.48;108983;1258;138780;-71
2024/03/14 00:54:38;;;;;;;74.80;44.50;;;;;;;6.52;88.21;101380.75;109055;1254;59284;-71
2024/03/14 00:57:06;;;;;;;73.40;43.20;;;;;;;6.49;88.11;101382.15;109135;1254;138684;-68
2024/03/14 00:59:33;;;;;;;71.40;43.40;;;;;;;6.47;88.21;101382.05;109122;1254;73837;-68
2024/03/14 01:01:59;;;;;;;71.40;41.10;;;;;;;6.49;88.44;101382.34;108161;1253;66046;-67
2024/03/14 01:04:29;;;;;;;74.80;43.60;;;;;;;6.47;88.22;101382.55;104923;1259;138457;-68
2024/03/14 01:06:56;;;;;;;74.30;43.00;;;;;;;6.42;88.16;101383.03;109084;1253;59193;-68
2024/03/14 01:09:24;;;;;;;69.80;43.80;;;;;;;6.39;88.15;101375.92;109078;1257;139198;-68
2024/03/14 01:11:54;;;;;;;72.40;42.80;;;;;;;6.33;88.06;101371.92;109239;1253;74773;-68
2024/03/14 01:14:21;;;;;;;65.50;42.70;;;;;;;6.27;88.07;101374.73;109115;1256;138788;-68
2024/03/14 01:16:51;;;;;;;64.00;42.00;;;;;;;6.19;87.90;101376.27;109087;1254;71737;-68
2024/03/14 01:19:18;;;;;;;61.10;41.70;;;;;;;6.14;87.93;101375.13;106269;1258;61267;-70
2024/03/14 01:21:45;;;;;;;63.10;40.00;;;;;;;6.11;88.02;101371.77;109023;1255;138717;-67
2024/03/14 01:24:12;;;;;;;57.40;39.00;;;;;;;6.09;87.98;101371.02;109131;1254;74550;-68
2024/03/14 01:26:40;;;;;;;64.60;40.60;;;;;;;6.08;88.09;101365.38;109102;1255;139246;-68
2024/03/14 01:29:06;;;;;;;63.70;41.00;;;;;;;6.11;88.23;101364.83;109076;1254;71470;-68
2024/03/14 01:31:33;;;;;;;65.00;40.30;;;;;;;6.14;88.19;101364.30;109023;1254;59623;-68
2024/03/14 01:34:01;;;;;;;63.20;40.00;;;;;;;6.16;88.22;101359.54;108981;1254;138809;-68
2024/03/14 01:36:28;;;;;;;65.70;43.10;;;;;;;6.18;88.18;101353.86;109210;1254;74378;-68
2024/03/14 01:38:55;;;;;;;66.70;41.30;;;;;;;6.19;88.17;101349.59;108979;1254;138868;-68
2024/03/14 01:41:21;;;;;;;66.40;41.30;;;;;;;6.20;88.08;101343.70;109048;1254;72658;-68
2024/03/14 01:44:00;;;;;;;64.20;40.80;;;;;;;6.20;88.06;101344.58;109120;1254;59007;-68
2024/03/14 01:46:28;;;;;;;64.20;40.50;;;;;;;6.22;88.07;101341.86;108876;1256;138796;-68
2024/03/14 01:48:55;;;;;;;68.50;42.50;;;;;;;6.22;88.05;101342.73;108994;1255;73472;-68
2024/03/14 01:51:25;;;;;;;66.50;41.90;;;;;;;6.23;88.12;101340.21;109011;1256;138769;-68
2024/03/14 01:53:52;;;;;;;73.40;42.20;;;;;;;6.25;88.00;101339.06;109124;1254;71603;-69
2024/03/14 01:56:21;;;;;;;72.10;42.00;;;;;;;6.23;87.90;101336.34;105720;1255;138984;-68
2024/03/14 01:58:49;;;;;;;65.60;42.00;;;;;;;6.22;87.96;101332.67;104984;1259;61315;-69
2024/03/14 02:01:16;;;;;;;74.40;44.20;;;;;;;6.26;88.06;101329.86;109127;1253;73875;-68
2024/03/14 02:03:44;;;;;;;69.10;41.80;;;;;;;6.26;88.03;101325.89;109025;1257;138980;-67
2024/03/14 02:06:15;;;;;;;71.00;45.10;;;;;;;6.27;88.11;101327.14;109002;1258;71968;-68
2024/03/14 02:08:41;;;;;;;71.90;44.40;;;;;;;6.28;88.12;101330.87;108969;1254;139004;-68
2024/03/14 02:11:09;;;;;;;70.90;44.60;;;;;;;6.24;87.89;101337.98;109193;1255;60161;-68
2024/03/14 02:13:36;;;;;;;65.40;42.10;;;;;;;6.24;87.92;101335.02;109203;1253;74208;-69
2024/03/14 02:16:02;;;;;;;63.00;41.90;;;;;;;6.23;87.89;101333.57;109017;1258;138644;-69
2024/03/14 02:18:29;;;;;;;61.30;42.20;;;;;;;6.24;88.03;101329.45;107810;1253;73045;-68
2024/03/14 02:20:56;;;;;;;68.10;43.00;;;;;;;6.28;88.02;101325.96;108935;1255;139080;-68
2024/03/14 02:23:23;;;;;;;66.80;43.80;;;;;;;6.27;87.85;101328.90;109096;1254;60675;-68
2024/03/14 02:25:49;;;;;;;65.00;43.00;;;;;;;6.24;87.71;101334.68;106556;1258;75043;-68
2024/03/14 02:28:16;;;;;;;69.10;44.10;;;;;;;6.18;87.53;101324.44;104878;1260;138963;-72
2024/03/14 02:30:43;;;;;;;64.90;41.60;;;;;;;6.14;87.50;101323.51;105931;1256;73266;-69
2024/03/14 02:33:11;;;;;;;65.00;43.40;;;;;;;6.08;87.46;101313.30;104644;1256;138853;-69
2024/03/14 02:35:39;;;;;;;63.30;42.80;;;;;;;6.00;87.36;101316.85;105249;1256;61254;-68
2024/03/14 02:38:07;;;;;;;63.00;41.60;;;;;;;5.93;87.44;101314.21;104997;1254;139385;-68
2024/03/14 02:40:35;;;;;;;67.70;41.00;;;;;;;5.86;87.43;101314.36;104887;1259;66692;-69
2024/03/14 02:43:01;;;;;;;62.20;42.40;;;;;;;5.78;87.25;101315.65;104922;1259;72349;-68
2024/03/14 02:45:28;;;;;;;62.90;41.90;;;;;;;5.66;87.28;101320.61;104805;1259;140480;-67
2024/03/14 02:47:55;;;;;;;66.70;43.10;;;;;;;5.52;87.06;101328.58;105079;1256;61351;-67
2024/03/14 02:50:22;;;;;;;66.60;42.40;;;;;;;5.42;87.28;101328.56;104785;1260;139038;-67
2024/03/14 02:52:48;;;;;;;65.90;43.70;;;;;;;5.35;87.46;101328.33;105083;1258;65877;-67
2024/03/14 02:55:16;;;;;;;66.40;42.90;;;;;;;5.27;87.48;101331.20;104899;1258;73985;-68
2024/03/14 02:57:44;;;;;;;61.00;41.20;;;;;;;5.16;87.40;101329.38;104754;1260;139043;-67
2024/03/14 03:00:16;;;;;;;63.10;41.90;;;;;;;5.07;87.41;101329.56;104842;1261;61424;-67
2024/03/14 03:02:44;;;;;;;66.20;43.90;;;;;;;4.99;87.54;101324.07;104946;1259;139103;-66
2024/03/14 03:05:10;;;;;;;66.50;42.90;;;;;;;4.94;87.62;101325.84;105134;1259;65127;-65
2024/03/14 03:07:37;;;;;;;67.70;42.10;;;;;;;4.94;87.99;101326.73;105040;1259;73403;-65
2024/03/14 03:10:06;;;;;;;64.90;43.40;;;;;;;4.94;88.14;101323.59;104856;1258;138762;-66
2024/03/14 03:12:39;;;;;;;61.80;41.60;;;;;;;4.95;88.43;101328.17;109122;1253;60347;-66
2024/03/14 03:15:07;;;;;;;68.10;43.70;;;;;;;4.99;88.49;101328.41;108950;1258;138658;-66
2024/03/14 03:17:34;;;;;;;70.10;44.70;;;;;;;5.04;88.75;101326.60;109253;1259;66368;-67
2024/03/14 03:20:09;;;;;;;61.50;42.10;;;;;;;5.10;88.78;101326.77;109109;1254;72434;-66
2024/03/14 03:25:24;;;;;;;63.60;43.30;;;;;;;5.24;88.95;101329.67;106645;1260;59168;-66
2024/03/14 03:27:51;;;;;;;61.70;43.20;;;;;;;5.32;88.92;101327.77;104892;1258;139037;-66
2024/03/14 03:30:19;;;;;;;61.10;41.70;;;;;;;5.37;88.96;101323.58;109001;1254;66654;-66
2024/03/14 03:32:46;;;;;;;61.80;40.70;;;;;;;5.40;88.79;101325.48;109128;1254;139094;-66
2024/03/14 03:35:18;;;;;;;59.70;41.30;;;;;;;5.43;88.85;101326.51;109226;1254;58935;-66
2024/03/14 03:37:45;;;;;;;62.90;41.40;;;;;;;5.47;88.87;101322.16;105730;1260;64698;-66
2024/03/14 03:40:15;;;;;;;57.40;40.70;;;;;;;5.54;89.05;101317.19;104910;1258;139101;-67
2024/03/14 03:42:41;;;;;;;60.50;41.40;;;;;;;5.57;88.88;101322.55;104951;1258;65720;-66
2024/03/14 03:45:11;;;;;;;57.70;40.40;;;;;;;5.57;88.81;101321.51;104804;1258;139294;-67
2024/03/14 03:47:39;;;;;;;61.20;42.90;;;;;;;5.56;88.71;101314.35;105139;1256;61353;-67
2024/03/14 03:50:10;;;;;;;59.50;41.60;;;;;;;5.59;88.87;101310.13;109204;1259;60720;-67
2024/03/14 03:52:37;;;;;;;59.40;40.40;;;;;;;5.60;88.78;101304.98;109090;1259;74776;-67
2024/03/14 03:55:07;;;;;;;62.00;40.70;;;;;;;5.60;88.73;101303.59;109169;1254;65620;-67
2024/03/14 03:57:34;;;;;;;60.80;41.00;;;;;;;5.62;88.73;101300.58;109067;1255;138753;-67
2024/03/14 04:00:07;;;;;;;61.40;40.90;;;;;;;5.62;88.66;101298.14;109119;1254;58921;-69
2024/03/14 04:02:36;;;;;;;;;;;;;;;5.61;88.42;101299.27;109074;1254;138841;-68
2024/03/14 04:05:05;;;;;;;60.20;39.70;;;;;;;5.61;88.50;101295.84;106581;1254;74920;-68
2024/03/14 04:07:34;;;;;;;57.30;39.50;;;;;;;5.63;88.49;101298.86;105017;1260;66299;-68
2024/03/14 04:10:01;;;;;;;57.40;37.90;;;;;;;5.63;88.49;101296.61;104866;1258;139275;-68
2024/03/14 04:12:28;;;;;;;60.50;39.90;;;;;;;5.61;88.43;101292.83;104939;1262;61243;-69
2024/03/14 04:14:55;;;;;;;64.10;42.60;;;;;;;5.60;88.41;101294.34;104960;1260;138735;-70
2024/03/14 04:17:22;;;;;;;59.90;41.40;;;;;;;5.60;88.50;101293.85;106006;1260;73863;-70
2024/03/14 04:19:49;;;;;;;62.70;40.90;;;;;;;5.61;88.55;101293.36;105884;1268;65369;-70
2024/03/14 04:22:16;;;;;;;66.20;41.80;;;;;;;5.60;88.63;101292.27;105900;1260;139305;-71
2024/03/14 04:24:43;;;;;;;62.10;40.50;;;;;;;5.59;88.51;101291.52;105938;1255;61342;-70
2024/03/14 04:27:10;;;;;;;58.00;39.60;;;;;;;5.57;88.50;101290.19;105921;1261;138861;-70
2024/03/14 04:29:37;;;;;;;60.60;40.60;;;;;;;5.54;88.37;101288.59;106070;1259;73285;-68
2024/03/14 04:32:03;;;;;;;59.90;41.60;;;;;;;5.50;88.41;101291.89;106058;1261;64928;-69
2024/03/14 04:34:30;;;;;;;57.20;39.50;;;;;;;5.47;88.42;101295.05;105771;1260;138659;-68
2024/03/14 04:36:56;;;;;;;60.60;41.10;;;;;;;5.44;88.43;101290.85;105012;1259;61675;-69
2024/03/14 04:39:23;;;;;;;55.90;38.90;;;;;;;5.39;88.26;101291.46;104938;1260;139186;-69
2024/03/14 04:41:52;;;;;;;55.40;38.50;;;;;;;5.34;88.32;101287.36;105074;1258;75652;-70
2024/03/14 04:44:19;;;;;;;59.00;39.30;;;;;;;5.29;88.29;101291.59;105084;1260;139438;-70
2024/03/14 04:46:46;;;;;;;61.20;40.20;;;;;;;5.24;88.37;101289.77;105982;1259;73166;-69
2024/03/14 04:49:13;;;;;;;57.60;38.90;;;;;;;5.20;88.37;101293.23;106032;1256;61332;-69
2024/03/14 04:51:40;;;;;;;60.00;40.90;;;;;;;5.15;88.35;101291.16;105427;1260;138973;-69
2024/03/14 04:54:07;;;;;;;60.90;40.10;;;;;;;5.11;88.38;101295.30;104978;1260;74807;-68
2024/03/14 04:56:34;;;;;;;59.20;39.90;;;;;;;5.03;88.30;101293.49;105642;1257;139015;-68
2024/03/14 04:59:08;;;;;;;56.10;38.80;;;;;;;4.99;88.49;101291.52;109150;1254;72430;-68
2024/03/14 05:01:35;;;;;;;60.20;40.50;;;;;;;4.95;88.50;101295.31;109210;1253;58954;-71
2024/03/14 05:04:03;;;;;;;63.20;41.90;;;;;;;4.91;88.44;101298.89;106583;1257;138792;-71
2024/03/14 05:06:31;;;;;;;57.70;41.30;;;;;;;4.88;88.56;101300.85;105104;1259;74073;-73
2024/03/14 05:08:59;;;;;;;60.40;41.50;;;;;;;4.88;88.68;101299.07;109062;1255;139228;-73
2024/03/14 05:11:26;;;;;;;63.00;40.80;;;;;;;4.90;88.90;101301.64;105986;1255;71458;-73
2024/03/14 05:13:56;;;;;;;60.50;41.20;;;;;;;4.96;89.12;101300.38;105910;1259;61264;-70
2024/03/14 05:16:23;;;;;;;62.30;41.20;;;;;;;5.02;89.31;101295.85;104863;1260;138810;-72
2024/03/14 05:18:50;;;;;;;62.60;42.50;;;;;;;5.09;89.40;101293.45;104981;1256;73750;-74
2024/03/14 05:21:16;;;;;;;63.20;43.50;;;;;;;5.14;89.39;101296.88;104871;1257;138919;-74
2024/03/14 05:23:43;;;;;;;61.10;40.50;;;;;;;5.15;89.34;101291.88;104982;1262;72101;-74
2024/03/14 05:26:10;;;;;;;62.20;43.30;;;;;;;5.17;89.24;101291.13;105811;1254;138964;-72
2024/03/14 05:28:37;;;;;;;58.60;41.00;;;;;;;5.17;89.23;101285.21;107237;1255;60607;-73
2024/03/14 05:31:05;;;;;;;61.60;43.00;;;;;;;5.14;89.02;101284.19;105023;1257;75268;-73
2024/03/14 05:33:31;;;;;;;63.80;44.20;;;;;;;5.10;88.89;101292.14;104840;1258;138935;-73
2024/03/14 05:35:59;;;;;;;56.50;41.00;;;;;;;5.04;88.71;101290.61;104980;1260;70988;-73
2024/03/14 05:38:26;;;;;;;64.10;42.20;;;;;;;5.00;88.78;101287.58;109022;1254;139175;-74
2024/03/14 05:40:53;;;;;;;62.70;43.80;;;;;;;4.98;88.79;101285.02;109176;1254;59813;-60
2024/03/14 05:43:19;;;;;;;60.60;40.50;;;;;;;4.97;88.90;101292.83;109179;1254;74322;-63
2024/03/14 05:45:46;;;;;;;62.20;41.80;;;;;;;4.97;88.94;101289.86;109023;1254;139028;-64
2024/03/14 05:48:13;;;;;;;61.30;42.00;;;;;;;4.99;89.00;101290.50;109117;1257;71440;-65
2024/03/14 05:50:42;;;;;;;63.20;41.70;;;;;;;5.04;89.11;101287.29;109076;1254;139437;-65
2024/03/14 05:53:09;;;;;;;63.40;43.10;;;;;;;5.09;89.11;101286.87;109174;1254;60073;-65
2024/03/14 05:55:38;;;;;;;62.30;41.70;;;;;;;5.15;89.19;101288.09;109073;1254;73851;-65
2024/03/14 05:58:08;;;;;;;66.10;45.20;;;;;;;5.20;89.13;101290.27;109058;1254;139365;-64
2024/03/14 06:00:34;;;;;;;65.50;45.60;;;;;;;5.26;89.19;101289.91;109086;1254;72342;-66
2024/03/14 06:03:01;;;;;;;70.90;47.90;;;;;;;5.36;89.36;101289.06;109042;1257;139560;-65
2024/03/14 06:05:30;;;;;;;72.90;50.90;;;;;;;5.50;89.55;101293.26;109067;1254;60276;-66
2024/03/14 06:07:57;;;;;;;70.30;49.40;;;;;;;5.59;89.38;101298.14;108793;1254;73330;-65
2024/03/14 06:10:24;;;;;;;72.60;49.60;;;;;;;5.68;89.41;101297.72;109012;1254;140611;-74
2024/03/14 06:12:51;;;;;;;78.90;49.50;;;;;;;5.76;89.50;101302.14;109033;1254;71373;-64
2024/03/14 06:15:18;;;;;;;79.30;51.50;;;;;;;5.86;89.53;101301.31;109037;1254;138712;-65
2024/03/14 06:17:50;;;;;;;79.90;50.60;;;;;;;5.96;89.47;101304.13;109103;1254;60007;-65
2024/03/14 06:20:18;;;;;;;80.70;50.40;;;;;;;6.03;89.27;101299.06;108851;1254;139559;-65
2024/03/14 06:22:45;;;;;;;77.50;52.10;;;;;;;6.09;89.21;101302.53;109113;1254;66296;-65
2024/03/14 06:25:11;;;;;;;73.50;50.40;;;;;;;6.12;89.07;101304.59;109144;1254;73664;-64
2024/03/14 06:27:39;;;;;;;78.30;49.70;;;;;;;6.17;89.13;101300.16;108989;1254;138583;-62
2024/03/14 06:30:09;;;;;;;76.40;51.10;;;;;;;6.21;89.03;101302.10;109115;1254;59264;-61
2024/03/14 06:32:38;;;;;;;79.80;52.50;;;;;;;6.29;89.09;101299.54;108986;1257;139213;-62
2024/03/14 06:35:08;;;;;;;80.70;51.90;;;;;;;6.33;89.06;101305.50;108781;1254;67419;-64
2024/03/14 06:37:35;;;;;;;82.30;54.40;;;;;;;6.40;89.01;101299.92;108984;1254;73661;-63
2024/03/14 06:40:05;;;;;;;83.40;53.90;;;;;;;6.49;89.17;101297.77;105137;1254;138672;-63
2024/03/14 06:42:32;;;;;;;82.80;52.80;;;;;;;6.55;88.85;101300.84;109091;1254;59223;-63
2024/03/14 06:45:02;;;;;;;85.20;53.90;;;;;;;6.54;88.71;101296.11;108998;1254;139539;-64
2024/03/14 06:47:29;;;;;;;78.30;52.10;;;;;;;6.63;88.92;101291.83;109027;1257;66065;-63
2024/03/14 06:49:58;;;;;;;84.70;53.40;;;;;;;6.63;88.58;101293.05;108992;1257;72108;-63
2024/03/14 06:52:25;;;;;;;89.30;55.30;;;;;;;6.70;88.80;101298.83;108942;1254;139149;-64
2024/03/14 06:54:53;;;;;;;79.70;53.30;;;;;;;6.77;88.67;101302.27;109074;1254;60173;-64
2024/03/14 06:57:19;;;;;;;77.70;53.00;;;;;;;6.83;88.63;101299.61;108896;1254;139256;-63
2024/03/14 06:59:52;;;;;;;77.80;53.10;;;;;;;6.86;88.45;101301.35;106468;1258;66732;-65
2024/03/14 07:02:18;;;;;;;79.70;52.40;;;;;;;6.90;88.33;101301.85;104859;1260;139809;-63
2024/03/14 07:04:47;;;;;;;74.80;52.50;;;;;;;6.93;88.14;101307.95;104937;1258;61359;-63
2024/03/14 07:07:16;;;;;;;76.10;51.20;;;;;;;6.95;88.14;101304.04;109092;1254;59356;-64
2024/03/14 07:09:43;;;;;;;71.40;49.20;;;;;;;7.02;88.31;101302.45;108880;1254;138549;-64
2024/03/14 07:12:10;;;;;;;79.80;53.50;;;;;;;7.11;88.31;101304.99;109011;1254;66379;-63
2024/03/14 07:14:36;;;;;;;76.20;51.90;;;;;;;7.20;88.30;101300.85;109044;1254;139474;-63
2024/03/14 07:17:03;;;;;;;77.60;52.00;;;;;;;7.31;88.24;101298.56;108973;1256;58895;-63
2024/03/14 07:19:30;;;;;;;77.20;53.70;;;;;;;7.39;88.13;101300.73;109167;1254;59527;-63
2024/03/14 07:21:56;;;;;;;73.50;52.80;;;;;;;7.47;88.03;101298.98;107896;1256;138922;-66
2024/03/14 07:24:24;;;;;;;77.90;53.30;;;;;;;7.57;87.92;101301.37;104975;1260;66813;-66
2024/03/14 07:26:51;;;;;;;78.50;53.40;;;;;;;7.69;88.09;101298.94;104936;1254;139533;-66
2024/03/14 07:29:18;;;;;;;81.60;55.10;;;;;;;7.85;88.05;101296.14;106298;1256;60395;-66
2024/03/14 07:31:47;;;;;;;82.70;55.70;;;;;;;7.95;87.88;101293.10;104956;1260;61167;-66
2024/03/14 07:34:15;;;;;;;75.80;50.90;;;;;;;8.04;87.81;101295.09;104812;1257;138918;-66
2024/03/14 07:36:42;;;;;;;81.20;53.70;;;;;;;8.18;87.78;101294.66;104951;1255;65611;-67
2024/03/14 07:39:15;;;;;;;73.50;51.30;;;;;;;8.35;87.81;101294.84;104752;1258;138551;-67
2024/03/14 07:41:42;;;;;;;72.90;51.40;;;;;;;8.43;87.38;101297.66;105211;1257;61392;-67
2024/03/14 07:44:09;;;;;;;76.70;53.60;;;;;;;8.51;87.16;101302.19;105100;1258;61184;-67
2024/03/14 07:46:37;;;;;;;74.00;50.70;;;;;;;8.53;86.90;101300.19;105885;1254;76452;-67
2024/03/14 07:49:03;;;;;;;75.80;52.90;;;;;;;8.65;87.09;101300.30;105084;1254;67110;-64
2024/03/14 07:51:31;;;;;;;73.00;51.80;;;;;;;8.73;86.83;101307.16;105005;1254;139337;-64
2024/03/14 07:53:58;;;;;;;75.80;52.40;;;;;;;8.82;86.82;101311.88;105004;1260;61233;-64
2024/03/14 07:56:25;;;;;;;72.00;51.00;;;;;;;8.92;86.59;101310.70;105013;1254;139301;-64
2024/03/14 07:58:52;;;;;;;78.30;53.60;;;;;;;8.98;86.41;101311.11;107433;1255;75329;-68
2024/03/14 08:01:19;;;;;;;76.60;53.50;;;;;;;9.18;86.80;101311.05;104965;1255;67276;-63
2024/03/14 08:03:47;;;;;;;71.50;51.40;;;;;;;9.42;86.66;101307.45;104939;1257;138702;-64
2024/03/14 08:06:16;;;;;;;76.00;53.40;;;;;;;9.55;86.38;101305.31;105117;1254;61298;-64
2024/03/14 08:08:43;;;;;;;77.20;53.40;;;;;;;9.72;86.27;101304.73;109003;1256;138662;-64
2024/03/14 08:11:12;;;;;;;78.50;54.80;;;;;;;9.88;86.01;101303.20;109145;1255;74640;-65
2024/03/14 08:13:39;;;;;;;76.40;51.20;;;;;;;10.05;85.65;101304.69;109194;1255;64418;-64
2024/03/14 08:16:14;;;;;;;74.60;53.90;;;;;;;10.12;85.04;101308.27;108759;1254;257526;-64
2024/03/14 08:18:44;;;;;;;76.00;55.20;;;;;;;10.09;84.49;101307.64;109173;1254;60679;-64
2024/03/14 08:21:12;;;;;;;73.30;53.10;;;;;;;10.07;84.27;101299.33;108879;1256;140107;-64
2024/03/14 08:23:44;;;;;;;74.80;53.30;;;;;;;10.09;83.96;101298.34;107687;1255;73948;-64
2024/03/14 08:26:12;;;;;;;77.00;53.00;;;;;;;10.15;84.19;101293.11;105065;1260;66423;-64
2024/03/14 08:28:41;;;;;;;73.00;53.50;;;;;;;10.26;84.12;101290.19;105038;1260;72265;-64
2024/03/14 08:31:15;;;;;;;78.40;54.60;;;;;;;10.36;83.97;101289.14;108989;1254;59017;-65
2024/03/14 08:33:45;;;;;;;80.30;56.60;;;;;;;10.45;83.87;101288.41;105459;1254;138380;-64
2024/03/14 08:36:13;;;;;;;76.10;53.70;;;;;;;10.59;83.99;101287.11;104860;1254;74440;-64
2024/03/14 08:38:40;;;;;;;81.90;56.80;;;;;;;10.68;83.58;101287.08;109024;1255;138726;-64
2024/03/14 08:41:07;;;;;;;78.00;56.40;;;;;;;10.71;83.37;101288.58;109071;1255;73508;-64
2024/03/14 08:43:35;;;;;;;74.40;55.90;;;;;;;10.73;83.25;101285.61;109083;1253;59213;-64
2024/03/14 08:46:02;;;;;;;82.80;58.50;;;;;;;10.74;83.12;101285.14;108727;1255;139243;-64
2024/03/14 08:48:28;;;;;;;86.70;59.10;;;;;;;10.81;83.17;101285.39;109093;1254;75513;-64
2024/03/14 08:50:55;;;;;;;74.40;53.20;;;;;;;10.83;82.86;101283.85;108978;1255;139031;-65
2024/03/14 08:53:22;;;;;;;84.60;56.30;;;;;;;10.79;82.55;101284.95;109158;1254;71744;-64
2024/03/14 08:55:55;;;;;;;84.30;58.50;;;;;;;10.71;82.33;101281.00;109086;1255;59853;-64
2024/03/14 08:58:25;;;;;;;92.20;61.70;;;;;;;10.60;82.39;101275.91;108914;1254;138658;-64
2024/03/14 09:00:52;;;;;;;88.20;60.40;;;;;;;10.56;82.68;101271.57;106695;1257;73909;-64
2024/03/14 09:03:19;;;;;;;85.90;60.20;;;;;;;10.57;82.69;101272.48;109018;1255;138553;-64
2024/03/14 09:05:46;;;;;;;95.80;64.50;;;;;;;10.56;82.81;101271.92;108226;1254;72685;-64
2024/03/14 09:08:18;;;;;;;101.00;64.00;;;;;;;10.54;82.80;101269.73;104666;1260;139071;-64
2024/03/14 09:10:45;;;;;;;95.70;61.90;;;;;;;10.50;82.78;101268.92;109109;1254;61474;-64
2024/03/14 09:13:12;;;;;;;97.00;63.90;;;;;;;10.43;82.67;101269.40;109150;1254;73520;-64
2024/03/14 09:15:38;;;;;;;104.20;65.60;;;;;;;10.40;83.00;101270.17;109119;1253;139029;-64
2024/03/14 09:18:06;;;;;;;101.40;64.60;;;;;;;10.42;83.15;101266.39;109103;1255;72765;-64
2024/03/14 09:20:33;;;;;;;106.80;66.70;;;;;;;10.45;83.12;101271.89;108974;1255;139330;-64
2024/03/14 09:22:59;;;;;;;105.40;66.90;;;;;;;10.48;83.22;101268.85;108031;1256;61345;-64
2024/03/14 09:25:26;;;;;;;109.20;66.40;;;;;;;10.45;83.02;101270.69;105014;1255;75469;-63
2024/03/14 09:27:53;;;;;;;109.30;67.80;;;;;;;10.46;83.17;101269.66;104746;1259;139222;-63
2024/03/14 09:30:21;;;;;;;116.30;68.20;;;;;;;10.52;83.39;101268.81;104936;1254;72186;-64
2024/03/14 09:32:48;;;;;;;118.40;67.40;;;;;;;10.57;83.28;101265.45;108964;1255;139803;-64
2024/03/14 09:35:25;;;;;;;117.70;68.80;;;;;;;10.60;83.26;101267.30;109233;1253;59212;-64
2024/03/14 09:37:55;;;;;;;125.80;72.90;;;;;;;10.66;83.47;101268.23;109118;1255;73900;-64
2024/03/14 09:40:22;;;;;;;137.00;73.20;;;;;;;10.76;83.77;101262.58;108923;1256;138554;-64
2024/03/14 09:43:00;;;;;;;125.50;70.20;;;;;;;10.84;83.73;101260.55;109011;1254;72969;-64
2024/03/14 09:45:28;;;;;;;124.90;71.30;;;;;;;10.91;83.49;101255.48;105130;1253;139697;-63
2024/03/14 09:47:56;;;;;;;123.50;70.90;;;;;;;10.94;83.41;101253.84;104961;1258;61240;-64
2024/03/14 09:50:24;;;;;;;116.20;68.10;;;;;;;11.00;83.62;101252.98;109002;1253;139549;-64
2024/03/14 09:52:51;;;;;;;117.60;71.70;;;;;;;11.08;83.62;101248.48;108527;1255;67319;-65
2024/03/14 09:55:22;;;;;;;108.30;66.40;;;;;;;11.16;83.65;101248.73;104855;1260;74235;-64
2024/03/14 09:57:53;;;;;;;109.90;66.40;;;;;;;11.23;83.41;101247.71;108916;1254;139755;-67
2024/03/14 10:00:20;;;;;;;118.30;67.90;;;;;;;11.31;83.46;101245.13;105086;1255;61945;-66
2024/03/14 10:02:48;;;;;;;103.80;64.40;;;;;;;11.41;83.57;101240.16;106515;1255;139940;-67
2024/03/14 10:05:19;;;;;;;97.00;60.40;;;;;;;11.51;83.38;101240.45;105444;1256;67509;-66
2024/03/14 10:07:46;;;;;;;92.70;59.90;;;;;;;11.58;83.19;101236.44;105010;1256;73613;-67
2024/03/14 10:10:13;;;;;;;103.70;63.60;;;;;;;11.66;83.18;101235.77;104798;1254;138668;-67
2024/03/14 10:12:49;;;;;;;96.10;56.70;;;;;;;11.75;83.01;101234.26;105051;1254;61320;-67
2024/03/14 10:15:16;;;;;;;90.70;59.20;;;;;;;11.84;82.86;101232.23;105175;1260;138522;-67
2024/03/14 10:17:43;;;;;;;89.60;57.40;;;;;;;11.93;82.80;101229.52;105140;1258;66597;-67
2024/03/14 10:20:12;;;;;;;94.50;57.80;;;;;;;12.03;82.79;101224.88;106629;1255;73036;-67
2024/03/14 10:22:43;;;;;;;88.10;56.60;;;;;;;12.15;82.71;101216.38;105216;1258;61186;-67
2024/03/14 10:25:12;;;;;;;81.40;52.80;;;;;;;12.26;82.50;101218.61;107049;1254;61453;-67
2024/03/14 10:27:44;;;;;;;83.40;54.00;;;;;;;12.36;82.10;101214.30;104850;1254;139141;-66
2024/03/14 10:30:12;;;;;;;80.80;52.00;;;;;;;12.45;81.99;101214.34;104962;1258;67064;-66
2024/03/14 10:32:39;;;;;;;90.50;52.50;;;;;;;12.60;82.04;101208.90;105443;1254;139073;-66
2024/03/14 10:35:08;;;;;;;77.70;52.00;;;;;;;12.77;82.02;101207.52;105052;1258;61282;-67
2024/03/14 10:37:38;;;;;;;82.00;52.60;;;;;;;12.93;81.54;101208.40;105026;1257;61252;-66
2024/03/14 10:40:14;;;;;;;86.80;54.60;;;;;;;12.97;80.96;101208.50;105341;1254;138975;-66
2024/03/14 10:42:41;;;;;;;84.30;52.90;;;;;;;12.98;80.53;101202.90;106685;1254;66898;-66
2024/03/14 10:45:09;;;;;;;80.90;50.00;;;;;;;13.01;80.22;101203.30;104839;1260;138699;-66
2024/03/14 10:47:35;;;;;;;76.30;49.00;;;;;;;13.06;79.96;101199.71;104886;1260;61267;-66
2024/03/14 10:50:09;;;;;;;72.60;46.60;;;;;;;13.10;79.64;101204.56;105079;1256;61369;-66
2024/03/14 10:52:38;;;;;;;;;;;;;;;13.16;79.34;101200.64;104936;1254;138352;-66
2024/03/14 10:55:10;;;;;;;70.50;43.80;;;;;;;13.19;78.67;101197.73;105675;1255;66790;-66
2024/03/14 10:57:38;;;;;;;67.10;47.00;;;;;;;13.17;78.23;101202.08;105486;1254;138653;-66
2024/03/14 11:00:13;;;;;;;60.10;43.90;;;;;;;13.25;78.12;101201.90;108243;1257;61444;-68
2024/03/14 11:02:46;;;;;;;65.30;44.70;;;;;;;13.32;77.74;101198.73;104932;1255;138800;-66
2024/03/14 11:05:17;;;;;;;62.90;43.50;;;;;;;13.33;77.14;101200.86;109068;1254;75097;-67
2024/03/14 11:07:51;;;;;;;64.60;45.40;;;;;;;13.38;77.09;101201.14;106253;1256;65207;-66
2024/03/14 11:10:27;;;;;;;67.90;46.00;;;;;;;13.56;77.31;101200.98;105716;1254;138164;-68